Decoded Metar for RKSS (SEOUL in KOREA) (IATA:GMP) | Meteo·Mobile Aviation Weather
aviador You're here:

RKSS Decoded Metar

SEOUL in KOREA
Report Time2019-12-11 00:00:00
UTC Time2019-12-11 00:18:00
Flight Rules ifr IFR
Wind280° at 12 kt
W.Decomp.*RWY 32: 10.2 kt HW 6.4 kt LCW
Visibility1700 m
Phenomena:Mist
Clouds:Scattered 015 Hf
Broken 030 Hf
Expected CloudBase > 800 ft AGL from Temp-Dew spread
Ceiling3,000 ft
Temp08°C (ISA -7)
Dew Point06°C (87% RH)
AAT2.8°C
QNH1015 hPa
Density Alt-705 ft
Elevation62 ft
Report Wrong Elevation
Raw Report
METAR RKSS 110000Z 28012KT 250V310 1700 BR SCT015 BKN030 08/06 Q1015
NOSIG=

Extra information for RKSS:More info

Metar Taf Metar & Taf Last 4 Metars F.Rules Stats Wind Profile Meteogram Temp Stats Airport Information Weather charts Add Link Nearby VenuesMetar ALERT Operation Metar Decoded Social comments